Time;durP1;ratioP1;P1;durP2;ratioP2;P2;SDS_P1;SDS_P2;PMS_P1;PMS_P2;Temp;Humidity;BMP_temperature;BMP_pressure;BME280_temperature;BME280_humidity;BME280_pressure;Samples;Min_cycle;Max_cycle;Signal;HPM_P1;HPM_P2
2022/04/01 00:01:16;;;;;;;5.83;3.00;;;4.80;73.00;;;;;;5057056;28;20035;-64
2022/04/01 00:03:42;;;;;;;6.37;2.80;;;4.80;73.00;;;;;;5054378;28;20045;-64
2022/04/01 00:06:07;;;;;;;6.77;2.63;;;4.80;73.00;;;;;;5054626;28;20041;-64
2022/04/01 00:08:33;;;;;;;7.40;2.83;;;4.80;73.00;;;;;;5054911;28;20112;-64
2022/04/01 00:10:58;;;;;;;5.60;2.37;;;4.70;73.00;;;;;;5059596;28;20028;-63
2022/04/01 00:13:24;;;;;;;7.33;2.37;;;4.70;72.90;;;;;;5055165;28;20033;-63
2022/04/01 00:15:50;;;;;;;5.03;2.23;;;4.60;72.90;;;;;;5055362;28;20323;-63
2022/04/01 00:18:16;;;;;;;5.93;2.33;;;4.70;73.00;;;;;;5056070;28;20100;-63
2022/04/01 00:20:41;;;;;;;7.40;2.70;;;4.60;73.00;;;;;;5054739;28;20397;-64
2022/04/01 00:23:07;;;;;;;5.97;2.33;;;4.60;73.00;;;;;;5054921;28;20116;-63
2022/04/01 00:25:33;;;;;;;5.30;2.60;;;4.60;73.00;;;;;;5068764;28;20033;-63
2022/04/01 00:27:58;;;;;;;6.87;2.40;;;4.60;73.00;;;;;;5072238;28;20028;-63
2022/04/01 00:30:24;;;;;;;5.67;2.60;;;4.60;73.00;;;;;;5055620;28;20064;-63
2022/04/01 00:32:50;;;;;;;5.40;2.40;;;4.60;73.10;;;;;;5053933;28;20063;-64
2022/04/01 00:35:16;;;;;;;5.43;2.43;;;4.60;73.10;;;;;;5064962;28;20445;-63
2022/04/01 00:37:42;;;;;;;5.90;2.70;;;4.60;73.10;;;;;;5072058;28;20487;-64
2022/04/01 00:40:12;;;;;;;6.43;2.50;;;4.50;73.00;;;;;;5054359;28;20025;-64
2022/04/01 00:42:38;;;;;;;5.37;2.30;;;4.50;73.00;;;;;;5055072;28;20106;-63
2022/04/01 00:45:05;;;;;;;5.67;2.40;;;4.50;73.00;;;;;;5070998;28;20071;-64
2022/04/01 00:47:30;;;;;;;6.37;2.40;;;4.50;73.00;;;;;;5054083;28;20405;-64
2022/04/01 00:49:56;;;;;;;6.03;2.60;;;4.50;73.00;;;;;;5067464;28;20025;-63
2022/04/01 00:52:22;;;;;;;5.93;2.60;;;4.50;73.70;;;;;;5053574;28;20473;-63
2022/04/01 00:54:49;;;;;;;6.00;2.60;;;4.50;73.00;;;;;;5053904;28;20442;-64
2022/04/01 00:57:15;;;;;;;6.60;2.50;;;4.50;73.00;;;;;;5064367;28;20099;-63
2022/04/01 00:59:42;;;;;;;4.57;2.20;;;4.50;73.00;;;;;;5068916;28;20112;-63
2022/04/01 01:02:08;;;;;;;4.97;2.20;;;4.60;73.10;;;;;;5052603;28;20035;-63
2022/04/01 01:04:35;;;;;;;7.37;2.67;;;4.50;73.10;;;;;;5062523;28;20140;-63
2022/04/01 01:07:03;;;;;;;6.13;2.73;;;4.50;73.10;;;;;;5054213;28;20032;-63
2022/04/01 01:09:29;;;;;;;6.20;3.00;;;4.50;73.10;;;;;;5064791;28;20039;-63
2022/04/01 01:11:56;;;;;;;5.83;2.80;;;4.50;73.10;;;;;;5053388;28;20424;-63
2022/04/01 01:14:28;;;;;;;5.27;2.37;;;4.50;73.20;;;;;;5061038;28;20034;-64
2022/04/01 01:16:54;;;;;;;5.77;2.80;;;4.40;73.20;;;;;;5053268;28;20029;-63
2022/04/01 01:19:20;;;;;;;6.33;2.67;;;4.40;73.20;;;;;;5067347;28;20519;-64
2022/04/01 01:21:50;;;;;;;5.40;2.77;;;4.40;73.20;;;;;;5100814;28;20035;-64
2022/04/01 01:24:16;;;;;;;5.20;2.80;;;4.40;73.10;;;;;;5064066;28;20493;-64
2022/04/01 01:26:51;;;;;;;6.40;3.20;;;4.40;73.20;;;;;;5053105;28;20082;-63
2022/04/01 01:29:25;;;;;;;5.90;2.80;;;4.40;73.30;;;;;;5053679;28;20106;-65
2022/04/01 01:31:53;;;;;;;7.70;3.33;;;4.40;73.40;;;;;;5052582;28;20406;-65
2022/04/01 01:34:19;;;;;;;5.47;2.50;;;4.30;73.40;;;;;;5061004;28;20032;-64
2022/04/01 01:36:45;;;;;;;5.53;2.40;;;4.30;73.40;;;;;;5066795;28;20522;-63
2022/04/01 01:39:11;;;;;;;6.43;2.90;;;4.30;73.30;;;;;;5065034;28;20349;-63
2022/04/01 01:41:36;;;;;;;8.40;2.53;;;4.30;73.40;;;;;;5058761;28;20036;-65
2022/04/01 01:44:04;;;;;;;6.20;3.00;;;4.30;73.40;;;;;;5056680;28;20029;-63
2022/04/01 01:46:30;;;;;;;6.07;2.87;;;4.30;73.50;;;;;;5057423;28;20029;-63
2022/04/01 01:48:56;;;;;;;5.37;2.50;;;4.30;73.50;;;;;;5061404;28;20039;-63
2022/04/01 01:56:50;;;;;;;5.20;2.50;;;4.30;73.50;;;;;;5056292;28;20029;-63
2022/04/01 01:59:16;;;;;;;5.73;2.57;;;4.30;73.50;;;;;;5059497;28;20036;-63
2022/04/01 02:01:43;;;;;;;6.97;3.20;;;4.20;73.50;;;;;;5055994;28;20112;-63
2022/04/01 02:04:09;;;;;;;5.20;2.53;;;4.20;73.60;;;;;;5059177;28;20028;-63
2022/04/01 02:06:35;;;;;;;9.30;2.73;;;4.30;73.50;;;;;;5064435;28;20040;-64
2022/04/01 02:09:01;;;;;;;5.87;2.57;;;4.20;73.50;;;;;;5070114;28;20113;-64
2022/04/01 02:11:28;;;;;;;5.53;2.57;;;4.30;73.50;;;;;;5056082;28;20393;-64
2022/04/01 02:13:56;;;;;;;5.73;2.53;;;4.20;73.50;;;;;;5055890;28;20057;-64
2022/04/01 02:16:21;;;;;;;5.23;2.50;;;4.20;73.60;;;;;;5074638;28;20031;-64
2022/04/01 02:18:49;;;;;;;5.87;2.83;;;4.20;73.50;;;;;;5063389;28;20017;-64
2022/04/01 02:21:15;;;;;;;5.90;2.40;;;4.20;73.60;;;;;;5060766;28;20370;-64
2022/04/01 02:23:43;;;;;;;5.50;2.70;;;4.20;73.60;;;;;;5072531;28;20424;-63
2022/04/01 02:26:12;;;;;;;5.30;2.60;;;4.20;73.50;;;;;;5064595;28;20024;-63
2022/04/01 02:28:39;;;;;;;6.20;2.57;;;4.20;73.50;;;;;;5055860;28;20029;-63
2022/04/01 02:31:06;;;;;;;5.23;2.30;;;4.20;73.50;;;;;;5067214;28;20048;-64
2022/04/01 02:34:03;;;;;;;5.90;2.57;;;4.20;73.60;;;;;;5056492;28;20112;-64
2022/04/01 02:36:29;;;;;;;6.13;2.63;;;4.10;73.60;;;;;;5074537;28;20421;-64
2022/04/01 02:38:55;;;;;;;5.40;2.53;;;4.20;73.60;;;;;;5059820;28;20033;-63
2022/04/01 02:41:21;;;;;;;5.13;2.40;;;4.10;73.50;;;;;;5056097;28;20057;-63
2022/04/01 02:43:48;;;;;;;5.47;2.77;;;4.10;73.50;;;;;;5060360;28;20156;-63
2022/04/01 02:46:13;;;;;;;5.97;2.50;;;4.10;73.40;;;;;;5070233;28;20052;-64
2022/04/01 02:48:53;;;;;;;5.60;2.73;;;4.10;73.50;;;;;;5060120;28;20036;-63
2022/04/01 02:51:39;;;;;;;5.17;2.60;;;4.10;73.50;;;;;;5055983;28;20032;-64
2022/04/01 02:54:14;;;;;;;6.00;2.57;;;4.10;73.60;;;;;;5055371;28;20408;-63
2022/04/01 02:56:40;;;;;;;5.30;2.33;;;4.10;73.60;;;;;;5066938;28;20017;-64
2022/04/01 02:59:08;;;;;;;6.73;2.90;;;4.10;73.60;;;;;;5068204;28;20036;-63
2022/04/01 03:01:39;;;;;;;5.67;2.70;;;4.10;73.50;;;;;;5059306;28;20119;-64
2022/04/01 03:04:10;;;;;;;6.30;2.90;;;4.10;73.50;;;;;;5038574;28;20457;-63
2022/04/01 03:06:40;;;;;;;6.00;2.57;;;4.10;73.40;;;;;;5059207;28;20428;-63
2022/04/01 03:09:07;;;;;;;4.40;2.47;;;4.00;73.40;;;;;;5070720;28;20033;-64
2022/04/01 03:11:33;;;;;;;7.80;3.00;;;4.00;73.40;;;;;;5060480;28;20121;-63
2022/04/01 03:13:59;;;;;;;5.27;2.57;;;4.10;73.40;;;;;;5054879;28;20025;-63
2022/04/01 03:16:43;;;;;;;6.50;2.50;;;4.00;73.40;;;;;;5056632;28;20044;-64
2022/04/01 03:19:10;;;;;;;6.03;2.67;;;4.00;73.40;;;;;;5067659;28;20021;-63
2022/04/01 03:21:41;;;;;;;5.40;2.60;;;4.00;73.40;;;;;;5055472;28;20288;-63
2022/04/01 03:24:09;;;;;;;6.10;2.60;;;4.00;73.40;;;;;;5063035;28;20032;-64
2022/04/01 03:26:37;;;;;;;4.67;2.50;;;4.00;73.40;;;;;;5058766;28;20031;-63
2022/04/01 03:29:06;;;;;;;5.37;2.50;;;4.00;73.60;;;;;;5072047;28;20032;-64
2022/04/01 03:31:32;;;;;;;6.30;2.97;;;4.00;73.60;;;;;;5049422;28;20036;-63
2022/04/01 03:34:01;;;;;;;8.23;3.03;;;4.00;73.60;;;;;;5065704;28;20064;-64
2022/04/01 03:36:26;;;;;;;7.43;3.20;;;4.10;73.60;;;;;;5056028;28;20045;-64
2022/04/01 03:38:54;;;;;;;7.83;3.40;;;4.00;73.60;;;;;;5039258;28;20387;-64
2022/04/01 03:41:40;;;;;;;4.97;2.40;;;4.00;73.50;;;;;;5038206;28;20033;-64
2022/04/01 03:44:06;;;;;;;6.80;2.93;;;4.00;74.10;;;;;;5066839;28;20057;-63
2022/04/01 03:46:55;;;;;;;6.20;2.93;;;4.00;73.50;;;;;;5051508;28;20111;-64
2022/04/01 03:49:22;;;;;;;6.07;2.90;;;3.90;73.50;;;;;;5037578;28;20409;-64
2022/04/01 03:51:49;;;;;;;5.40;2.63;;;3.90;73.50;;;;;;5056011;28;20353;-64
2022/04/01 03:54:16;;;;;;;7.17;3.10;;;3.90;73.60;;;;;;5060396;28;20095;-64
2022/04/01 03:57:18;;;;;;;5.50;2.67;;;3.90;73.40;;;;;;5036406;28;20362;-63
2022/04/01 04:00:04;;;;;;;7.27;3.57;;;3.90;73.50;;;;;;5054697;28;20169;-63
2022/04/01 04:02:43;;;;;;;7.53;2.60;;;3.90;73.50;;;;;;5055552;28;20033;-64
2022/04/01 04:05:10;;;;;;;6.47;2.60;;;3.90;73.50;;;;;;5054061;28;20029;-64
2022/04/01 04:07:39;;;;;;;7.20;3.17;;;3.90;73.50;;;;;;5061006;28;20029;-63
2022/04/01 04:10:08;;;;;;;6.37;3.00;;;3.90;73.50;;;;;;5072207;28;20028;-63
2022/04/01 04:12:43;;;;;;;6.37;2.73;;;3.90;73.40;;;;;;5056539;28;20028;-64
2022/04/01 04:15:09;;;;;;;6.33;2.90;;;3.80;73.30;;;;;;5054113;28;20065;-63
2022/04/01 04:17:44;;;;;;;5.90;2.53;;;3.80;73.30;;;;;;5034884;28;20026;-64
2022/04/01 04:20:34;;;;;;;6.00;2.70;;;3.80;73.30;;;;;;5048755;28;20041;-63
2022/04/01 04:23:22;;;;;;;5.60;2.63;;;3.80;73.10;;;;;;5087764;28;20115;-63
2022/04/01 04:26:00;;;;;;;5.67;2.50;;;3.80;73.00;;;;;;5052545;28;20021;-63
2022/04/01 04:28:34;;;;;;;5.38;2.40;;;3.90;73.00;;;;;;5073240;28;20066;-64
2022/04/01 04:31:26;;;;;;;5.63;2.55;;;3.80;73.00;;;;;;5067860;28;20050;-63
2022/04/01 04:34:04;;;;;;;6.97;2.90;;;3.80;72.90;;;;;;5073649;28;20177;-63
2022/04/01 04:36:42;;;;;;;5.32;2.40;;;3.80;72.90;;;;;;5069937;28;20052;-63
2022/04/01 04:39:31;;;;;;;5.57;2.40;;;3.80;72.90;;;;;;5054613;28;20048;-63
2022/04/01 04:41:57;;;;;;;5.30;2.40;;;3.80;72.80;;;;;;5062364;28;20044;-63
2022/04/01 04:44:25;;;;;;;5.47;2.40;;;3.80;72.80;;;;;;5053325;28;20057;-63
2022/04/01 04:46:52;;;;;;;5.60;2.50;;;3.80;72.80;;;;;;5055000;28;20453;-63
2022/04/01 04:49:22;;;;;;;5.53;2.57;;;3.80;72.80;;;;;;5053616;28;20040;-63
2022/04/01 04:51:48;;;;;;;5.30;2.33;;;3.80;72.80;;;;;;5058213;28;20024;-63
2022/04/01 04:54:27;;;;;;;6.37;2.53;;;3.80;72.80;;;;;;5073204;28;20054;-63
2022/04/01 04:57:09;;;;;;;5.20;2.50;;;3.80;72.80;;;;;;5059948;28;20358;-63
2022/04/01 04:59:38;;;;;;;9.07;2.93;;;3.80;72.80;;;;;;5073198;28;20020;-63
2022/04/01 05:02:08;;;;;;;6.73;2.60;;;3.80;72.70;;;;;;5062802;28;20169;-63
2022/04/01 05:04:52;;;;;;;7.70;2.47;;;3.80;72.70;;;;;;5071828;28;20024;-63
2022/04/01 05:07:50;;;;;;;6.83;2.80;;;3.80;72.70;;;;;;5052970;28;20059;-63
2022/04/01 05:10:59;;;;;;;5.40;2.37;;;3.80;72.60;;;;;;5054189;28;20154;-63
2022/04/01 05:14:00;;;;;;;4.47;2.10;;;3.70;72.50;;;;;;5055925;28;20029;-63
2022/04/01 05:16:41;;;;;;;5.03;2.50;;;3.70;72.70;;;;;;5072969;28;20132;-63
2022/04/01 05:19:12;;;;;;;5.03;2.35;;;3.70;72.70;;;;;;5058346;28;20021;-63
2022/04/01 05:22:01;;;;;;;4.50;2.00;;;3.70;72.60;;;;;;5056792;28;20036;-63
2022/04/01 05:24:47;;;;;;;6.07;2.23;;;3.70;72.50;;;;;;5037426;28;20048;-63
2022/04/01 05:27:25;;;;;;;4.40;1.97;;;3.70;72.50;;;;;;5066021;28;20033;-63
2022/04/01 05:30:14;;;;;;;5.50;2.30;;;3.70;72.30;;;;;;5076643;28;20124;-63
2022/04/01 05:33:06;;;;;;;5.77;2.30;;;3.70;72.40;;;;;;5044098;28;20111;-64
2022/04/01 05:35:41;;;;;;;4.83;1.83;;;3.70;72.30;;;;;;5056972;28;20116;-63
2022/04/01 05:38:09;;;;;;;5.20;2.47;;;3.70;72.30;;;;;;5067313;28;20077;-63
2022/04/01 05:40:37;;;;;;;5.87;2.23;;;3.70;72.30;;;;;;5070147;28;20105;-63
2022/04/01 05:43:04;;;;;;;5.20;2.23;;;3.70;72.30;;;;;;5061185;28;20032;-63
2022/04/01 05:45:53;;;;;;;6.33;2.30;;;3.70;72.30;;;;;;5068603;28;20106;-64
2022/04/01 05:48:20;;;;;;;5.70;2.40;;;3.70;72.30;;;;;;5066815;28;20354;-63
2022/04/01 05:50:52;;;;;;;4.63;2.20;;;3.70;72.30;;;;;;5057478;28;20028;-63
2022/04/01 05:53:21;;;;;;;5.77;2.57;;;3.70;72.30;;;;;;5057559;28;20338;-64
2022/04/01 05:55:51;;;;;;;6.20;2.20;;;3.70;72.30;;;;;;5055904;28;20021;-63
2022/04/01 05:58:17;;;;;;;5.13;2.07;;;3.70;72.30;;;;;;5038182;28;20040;-64
2022/04/01 06:01:08;;;;;;;4.67;1.93;;;3.70;72.20;;;;;;5054746;28;20029;-64
2022/04/01 06:03:44;;;;;;;5.68;2.50;;;3.70;72.30;;;;;;5054364;28;20020;-63
2022/04/01 06:06:31;;;;;;;5.33;2.50;;;3.70;72.20;;;;;;5054581;28;20037;-64
2022/04/01 06:09:05;;;;;;;5.67;2.63;;;3.70;72.30;;;;;;5054682;28;20048;-64
2022/04/01 06:12:18;;;;;;;4.90;2.37;;;3.70;72.30;;;;;;5054558;28;20362;-64
2022/04/01 06:15:27;;;;;;;6.10;2.00;;;3.70;72.30;;;;;;5055584;28;20120;-64
2022/04/01 06:18:44;;;;;;;5.63;2.40;;;3.70;72.30;;;;;;5055726;28;20029;-64
2022/04/01 06:21:15;;;;;;;6.33;2.47;;;3.70;72.20;;;;;;5037437;28;20095;-64
2022/04/01 06:23:50;;;;;;;5.03;2.20;;;3.80;72.20;;;;;;5052505;28;20038;-64
2022/04/01 06:26:16;;;;;;;5.47;2.23;;;3.80;72.20;;;;;;5037117;28;20040;-64
2022/04/01 06:28:58;;;;;;;5.00;2.13;;;3.80;72.20;;;;;;5052434;28;20028;-64
2022/04/01 06:31:26;;;;;;;6.60;2.30;;;3.80;72.20;;;;;;5052705;28;20064;-64
2022/04/01 06:34:30;;;;;;;6.57;2.40;;;3.80;72.00;;;;;;5052524;28;20032;-64
2022/04/01 06:37:22;;;;;;;5.43;2.20;;;3.80;72.00;;;;;;5040576;28;20323;-64
2022/04/01 06:40:06;;;;;;;5.30;2.00;;;3.80;72.00;;;;;;5054855;28;20417;-64
2022/04/01 06:42:43;;;;;;;5.95;2.17;;;3.80;71.90;;;;;;5039718;28;20052;-64
2022/04/01 06:45:24;;;;;;;4.80;2.10;;;3.80;72.00;;;;;;5036736;28;20458;-64
2022/04/01 06:48:08;;;;;;;5.63;2.33;;;3.80;72.10;;;;;;5045824;28;20028;-63
2022/04/01 06:50:56;;;;;;;5.83;2.47;;;3.80;72.10;;;;;;5048206;28;20048;-64
2022/04/01 06:53:44;;;;;;;5.50;2.27;;;3.90;72.10;;;;;;5073113;28;20074;-64
2022/04/01 06:56:29;;;;;;;5.97;2.37;;;3.90;72.20;;;;;;5073056;28;20141;-64
2022/04/01 06:58:54;;;;;;;4.90;2.10;;;4.00;72.20;;;;;;5077816;28;20068;-64
2022/04/01 07:01:20;;;;;;;6.60;2.57;;;4.10;72.20;;;;;;5070608;28;20029;-64
2022/04/01 07:03:45;;;;;;;5.77;2.63;;;4.20;72.10;;;;;;5074269;28;20032;-64
2022/04/01 07:06:11;;;;;;;5.73;2.40;;;4.20;71.90;;;;;;5071812;28;20469;-64
2022/04/01 07:08:37;;;;;;;6.57;2.57;;;4.20;71.80;;;;;;5069629;28;20040;-64
2022/04/01 07:11:02;;;;;;;6.97;2.40;;;4.20;71.80;;;;;;5060736;28;20037;-63
2022/04/01 07:13:29;;;;;;;6.30;2.60;;;4.20;71.80;;;;;;5069784;28;20036;-64
2022/04/01 07:15:54;;;;;;;7.20;2.60;;;4.20;71.70;;;;;;5066898;28;20043;-64
2022/04/01 07:18:21;;;;;;;6.23;2.73;;;4.20;71.70;;;;;;5069080;28;20477;-63
2022/04/01 07:20:47;;;;;;;5.63;2.40;;;4.10;71.70;;;;;;5069071;28;20161;-64
2022/04/01 07:23:13;;;;;;;5.37;2.13;;;4.20;71.80;;;;;;5074357;28;20472;-64
2022/04/01 07:25:39;;;;;;;7.07;2.77;;;4.20;72.50;;;;;;5069027;28;20120;-64
2022/04/01 07:28:04;;;;;;;6.37;2.63;;;4.20;71.80;;;;;;5057556;28;20429;-64
2022/04/01 07:30:31;;;;;;;6.80;2.87;;;4.20;71.80;;;;;;5046738;28;20064;-65
2022/04/01 07:33:03;;;;;;;6.17;2.20;;;4.20;71.80;;;;;;5056463;28;20116;-63
2022/04/01 07:35:29;;;;;;;7.23;2.13;;;4.20;71.70;;;;;;5053925;28;20021;-64
2022/04/01 07:37:56;;;;;;;7.67;2.53;;;4.20;71.70;;;;;;5054351;28;20033;-64
2022/04/01 07:40:24;;;;;;;6.07;2.20;;;4.20;71.60;;;;;;5065860;28;20361;-64
2022/04/01 07:42:50;;;;;;;9.53;2.67;;;4.20;71.70;;;;;;5073465;28;20033;-64
2022/04/01 07:45:16;;;;;;;4.90;2.17;;;4.20;71.70;;;;;;5075146;28;20047;-64
2022/04/01 07:47:44;;;;;;;5.07;2.40;;;4.20;71.80;;;;;;5054920;28;20354;-63
2022/04/01 07:50:10;;;;;;;4.60;2.27;;;4.30;71.80;;;;;;5066738;28;20036;-63
2022/04/01 07:52:40;;;;;;;6.63;2.40;;;4.30;71.80;;;;;;5068540;28;20056;-64
2022/04/01 07:55:07;;;;;;;6.40;2.77;;;4.30;71.70;;;;;;5056694;28;20056;-64
2022/04/01 07:57:33;;;;;;;5.17;2.03;;;4.40;71.70;;;;;;5069236;28;20043;-64
2022/04/01 07:59:58;;;;;;;5.33;2.27;;;4.40;71.60;;;;;;5075102;28;20036;-64
2022/04/01 08:02:24;;;;;;;5.40;2.43;;;4.40;71.50;;;;;;5066031;28;20029;-64
2022/04/01 08:04:49;;;;;;;4.93;1.90;;;4.40;71.40;;;;;;5053452;28;20068;-64
2022/04/01 08:07:16;;;;;;;4.33;2.00;;;4.50;71.30;;;;;;5053886;28;20029;-64
2022/04/01 08:09:42;;;;;;;3.40;1.63;;;4.50;71.00;;;;;;5052804;28;20067;-64
2022/04/01 08:12:08;;;;;;;5.27;2.20;;;4.50;70.90;;;;;;5053558;28;20053;-64
2022/04/01 08:14:36;;;;;;;5.23;1.73;;;4.50;70.70;;;;;;5053465;28;20390;-64
2022/04/01 08:17:04;;;;;;;4.77;1.70;;;4.60;70.60;;;;;;5054863;28;20108;-65
2022/04/01 08:19:30;;;;;;;4.43;1.80;;;4.60;70.40;;;;;;5054710;28;20035;-64
2022/04/01 08:21:57;;;;;;;4.97;1.80;;;4.60;70.20;;;;;;5045977;28;20357;-65
2022/04/01 08:24:24;;;;;;;3.97;1.60;;;4.60;70.00;;;;;;5054790;28;20037;-64
2022/04/01 08:26:51;;;;;;;4.23;1.80;;;4.60;69.90;;;;;;5055451;28;20410;-64
2022/04/01 08:29:16;;;;;;;4.70;1.70;;;4.60;69.80;;;;;;5055116;28;20053;-65
2022/04/01 08:31:42;;;;;;;3.67;1.50;;;4.60;69.70;;;;;;5054167;28;20025;-64
2022/04/01 08:34:09;;;;;;;3.93;1.57;;;4.60;69.60;;;;;;5055524;28;20033;-65
2022/04/01 08:36:34;;;;;;;2.80;1.50;;;4.60;69.40;;;;;;5054139;28;20052;-64
2022/04/01 08:39:00;;;;;;;2.80;1.30;;;4.70;69.30;;;;;;5054391;28;20032;-64
2022/04/01 08:41:25;;;;;;;7.10;1.60;;;4.70;69.00;;;;;;5052878;28;20465;-65
2022/04/01 08:43:52;;;;;;;3.13;1.50;;;4.70;68.80;;;;;;5052933;28;20110;-65
2022/04/01 08:46:20;;;;;;;3.17;1.60;;;4.70;68.60;;;;;;5058063;28;20051;-64
2022/04/01 08:48:46;;;;;;;4.63;1.40;;;4.70;68.50;;;;;;5059266;28;20112;-64
2022/04/01 08:51:13;;;;;;;3.07;1.40;;;4.80;68.40;;;;;;5058713;28;20125;-65
2022/04/01 08:53:41;;;;;;;4.40;1.50;;;4.80;68.30;;;;;;5059823;28;20465;-64
2022/04/01 08:56:08;;;;;;;4.50;1.70;;;4.90;68.30;;;;;;5062528;28;20090;-65
2022/04/01 08:58:34;;;;;;;5.77;1.50;;;4.90;68.10;;;;;;5059232;28;20029;-64
2022/04/01 09:01:02;;;;;;;5.03;1.40;;;5.00;67.90;;;;;;5056189;28;20033;-64
2022/04/01 09:03:28;;;;;;;5.97;1.73;;;5.00;67.70;;;;;;5057714;28;20033;-64
2022/04/01 09:06:01;;;;;;;5.97;1.90;;;5.00;67.60;;;;;;5057634;28;20033;-64
2022/04/01 09:08:30;;;;;;;3.47;1.60;;;5.00;67.50;;;;;;5059045;28;20033;-64
2022/04/01 09:11:03;;;;;;;5.37;2.17;;;5.00;67.30;;;;;;5058108;28;20080;-64
2022/04/01 09:13:30;;;;;;;3.90;1.73;;;5.10;67.20;;;;;;5067282;28;20107;-64
2022/04/01 09:15:57;;;;;;;3.87;1.60;;;5.10;67.10;;;;;;5059707;28;20025;-64
2022/04/01 09:18:54;;;;;;;3.77;1.43;;;5.20;67.00;;;;;;5071763;28;20032;-64
2022/04/01 09:21:28;;;;;;;3.17;1.30;;;5.20;67.50;;;;;;5071978;28;20480;-64
2022/04/01 09:23:54;;;;;;;5.90;1.77;;;5.30;66.80;;;;;;5069297;28;20048;-64
2022/04/01 09:26:39;;;;;;;5.30;2.00;;;5.40;66.70;;;;;;5058470;28;20335;-64
2022/04/01 09:29:07;;;;;;;4.63;1.53;;;5.50;66.40;;;;;;5057796;28;20068;-64
2022/04/01 09:31:38;;;;;;;4.97;1.80;;;5.60;66.30;;;;;;5057625;28;20099;-63
2022/04/01 09:34:10;;;;;;;4.30;1.77;;;5.70;66.30;;;;;;5061411;28;20105;-63
2022/04/01 09:36:37;;;;;;;5.68;2.13;;;5.80;66.30;;;;;;5057469;28;20111;-64
2022/04/01 09:39:06;;;;;;;4.27;1.70;;;5.90;66.20;;;;;;5043009;28;20151;-64
2022/04/01 09:41:43;;;;;;;4.27;1.60;;;6.00;66.00;;;;;;5049223;28;20028;-64
2022/04/01 09:44:10;;;;;;;5.63;2.03;;;6.10;66.00;;;;;;5063351;28;20040;-64
2022/04/01 09:46:45;;;;;;;4.83;2.00;;;6.20;65.90;;;;;;5057181;28;20116;-63
2022/04/01 09:49:12;;;;;;;6.43;1.87;;;6.30;65.60;;;;;;5072134;28;20035;-63
2022/04/01 09:51:42;;;;;;;4.13;1.73;;;6.50;65.50;;;;;;5060215;28;20036;-64
2022/04/01 09:54:07;;;;;;;4.83;2.03;;;6.50;65.30;;;;;;5058287;28;20029;-65
2022/04/01 09:56:43;;;;;;;5.63;2.10;;;6.50;65.40;;;;;;5061983;28;20170;-64
2022/04/01 09:59:11;;;;;;;4.87;2.23;;;6.50;65.40;;;;;;5061111;28;20056;-64
2022/04/01 10:01:38;;;;;;;5.60;2.27;;;6.50;65.30;;;;;;5069969;28;20028;-64
2022/04/01 10:04:04;;;;;;;6.30;2.10;;;6.40;65.20;;;;;;5061932;28;20350;-64
2022/04/01 10:06:32;;;;;;;7.30;2.80;;;6.40;65.10;;;;;;5064643;28;20033;-64
2022/04/01 10:09:01;;;;;;;9.27;2.40;;;6.30;65.10;;;;;;5055386;28;20449;-65
2022/04/01 10:11:28;;;;;;;5.40;2.40;;;6.30;65.00;;;;;;5055102;28;20032;-63
2022/04/01 10:13:54;;;;;;;5.47;2.53;;;6.40;65.00;;;;;;5071919;28;20084;-63
2022/04/01 10:16:25;;;;;;;6.23;2.40;;;6.50;64.90;;;;;;5057400;28;20031;-63
2022/04/01 10:18:54;;;;;;;7.23;2.70;;;6.60;64.90;;;;;;5057772;28;20032;-64
2022/04/01 10:21:20;;;;;;;6.57;2.50;;;6.60;64.80;;;;;;5055765;28;20021;-64
2022/04/01 10:23:57;;;;;;;5.93;2.60;;;6.60;64.60;;;;;;5059982;28;20424;-64
2022/04/01 10:26:27;;;;;;;7.60;2.57;;;6.70;64.40;;;;;;5062354;28;20116;-64
2022/04/01 10:28:53;;;;;;;7.85;2.78;;;6.70;64.30;;;;;;5076643;28;20064;-65
2022/04/01 10:31:20;;;;;;;6.37;2.90;;;6.70;64.10;;;;;;5059114;28;20082;-64
2022/04/01 10:33:46;;;;;;;6.03;2.73;;;6.70;64.00;;;;;;5061679;28;20032;-64
2022/04/01 10:36:22;;;;;;;6.93;3.03;;;6.70;64.00;;;;;;5056361;28;20035;-64
2022/04/01 10:38:49;;;;;;;7.27;3.00;;;6.60;63.70;;;;;;5057022;28;20128;-64
2022/04/01 10:41:16;;;;;;;6.67;3.10;;;6.60;63.60;;;;;;5056572;28;20029;-63
2022/04/01 10:43:44;;;;;;;7.20;3.20;;;6.60;63.60;;;;;;5056760;28;20354;-63
2022/04/01 10:46:13;;;;;;;6.80;3.00;;;6.50;63.60;;;;;;5054908;28;20111;-64
2022/04/01 10:52:13;;;;;;;6.67;2.97;;;6.40;63.80;;;;;;5055563;28;20040;-64
2022/04/01 10:54:43;;;;;;;6.10;2.77;;;6.40;63.80;;;;;;5053884;28;20517;-63
2022/04/01 10:57:12;;;;;;;6.97;3.17;;;6.30;63.70;;;;;;5055268;28;20021;-63
2022/04/01 10:59:42;;;;;;;5.90;3.00;;;6.30;63.60;;;;;;5055069;28;20429;-64
2022/04/01 11:02:15;;;;;;;7.80;3.30;;;6.40;63.50;;;;;;5055004;28;20031;-63
2022/04/01 11:04:43;;;;;;;7.10;3.07;;;6.50;63.30;;;;;;5055256;28;20369;-64
2022/04/01 11:07:14;;;;;;;7.33;3.00;;;6.50;63.10;;;;;;5058935;28;20404;-64
2022/04/01 11:09:52;;;;;;;6.80;3.15;;;6.60;62.90;;;;;;5056113;28;20068;-64
2022/04/01 11:15:08;;;;;;;6.20;2.83;;;6.80;62.40;;;;;;5067788;28;20040;-64
2022/04/01 11:17:34;;;;;;;7.35;3.05;;;6.80;61.90;;;;;;5035603;28;20112;-63
2022/04/01 11:20:07;;;;;;;6.10;2.53;;;6.70;62.00;;;;;;5066185;28;20064;-64
2022/04/01 11:22:35;;;;;;;7.03;2.70;;;6.70;61.80;;;;;;5073994;28;20044;-64
2022/04/01 11:25:02;;;;;;;6.53;2.93;;;6.70;61.70;;;;;;5069365;28;20055;-64
2022/04/01 11:27:28;;;;;;;6.90;3.10;;;6.70;61.60;;;;;;5075696;28;20102;-64
2022/04/01 11:30:13;;;;;;;6.93;3.20;;;6.80;61.60;;;;;;5061655;28;20354;-63
2022/04/01 11:32:41;;;;;;;6.50;3.13;;;6.80;61.50;;;;;;5055810;28;20033;-64
2022/04/01 11:35:08;;;;;;;8.13;3.50;;;6.80;61.60;;;;;;5057975;28;20025;-63
2022/04/01 11:37:39;;;;;;;7.60;3.20;;;6.70;61.70;;;;;;5054089;28;20040;-63
2022/04/01 11:40:11;;;;;;;7.28;3.15;;;6.70;61.90;;;;;;5056261;28;20036;-63
2022/04/01 11:42:53;;;;;;;7.45;2.83;;;6.70;62.00;;;;;;5054734;28;20079;-63
2022/04/01 11:45:19;;;;;;;6.95;3.25;;;6.60;62.10;;;;;;5072589;28;20036;-64
2022/04/01 11:47:45;;;;;;;7.40;3.70;;;6.60;62.30;;;;;;5059341;28;20061;-64
2022/04/01 11:50:12;;;;;;;8.73;3.73;;;6.60;62.30;;;;;;5055354;28;20064;-63
2022/04/01 11:52:39;;;;;;;8.03;4.10;;;6.50;62.20;;;;;;5056106;28;20033;-64
2022/04/01 11:55:13;;;;;;;8.17;3.90;;;6.60;62.80;;;;;;5057764;28;20060;-63
2022/04/01 11:57:40;;;;;;;9.60;4.13;;;6.60;61.70;;;;;;5041305;28;20025;-64
2022/04/01 12:00:25;;;;;;;9.23;4.03;;;6.60;61.60;;;;;;5032582;28;20026;-64
2022/04/01 12:02:52;;;;;;;10.13;3.73;;;6.60;61.40;;;;;;5037654;28;20048;-64
2022/04/01 12:05:19;;;;;;;7.47;3.63;;;6.70;61.30;;;;;;5033759;28;20064;-63
2022/04/01 12:10:39;;;;;;;7.80;3.60;;;6.90;60.70;;;;;;5033738;28;20067;-64
2022/04/01 12:13:08;;;;;;;9.90;4.20;;;7.00;60.60;;;;;;5037529;28;20360;-63
2022/04/01 12:15:35;;;;;;;8.80;3.87;;;7.10;60.60;;;;;;5046715;28;20028;-64
2022/04/01 12:18:02;;;;;;;7.90;3.87;;;7.10;60.60;;;;;;5032308;28;20025;-64
2022/04/01 12:20:28;;;;;;;7.90;3.57;;;7.10;60.80;;;;;;5041669;28;20083;-63
2022/04/01 12:22:59;;;;;;;7.97;3.80;;;7.20;61.00;;;;;;5059716;28;20124;-64
2022/04/01 12:25:27;;;;;;;7.50;4.20;;;7.20;61.00;;;;;;5057885;28;20112;-63
2022/04/01 12:27:58;;;;;;;8.70;3.77;;;7.20;60.80;;;;;;5056125;28;20067;-64
2022/04/01 12:30:36;;;;;;;8.40;3.63;;;7.20;60.60;;;;;;5054239;28;20064;-64
2022/04/01 12:33:06;;;;;;;6.30;3.30;;;7.10;60.30;;;;;;5061284;28;20041;-64
2022/04/01 12:35:33;;;;;;;7.80;4.10;;;7.10;60.30;;;;;;5054748;28;20035;-64
2022/04/01 12:38:10;;;;;;;7.83;3.90;;;7.10;60.20;;;;;;5061881;28;20025;-64
2022/04/01 12:40:44;;;;;;;8.20;3.90;;;7.10;60.00;;;;;;5055493;28;20334;-65
2022/04/01 12:43:38;;;;;;;7.63;3.33;;;7.10;59.90;;;;;;5059539;28;20329;-64
2022/04/01 12:46:17;;;;;;;7.93;3.97;;;7.10;59.80;;;;;;5052884;28;20064;-63
2022/04/01 12:48:55;;;;;;;8.83;3.93;;;7.10;59.80;;;;;;5055211;28;20051;-63
2022/04/01 12:51:36;;;;;;;7.67;3.97;;;7.10;59.60;;;;;;5052139;28;20036;-63
2022/04/01 12:54:08;;;;;;;8.73;4.22;;;7.00;59.30;;;;;;5042340;28;20351;-64
2022/04/01 12:56:39;;;;;;;7.53;3.83;;;7.00;59.30;;;;;;5045413;28;20025;-64
2022/04/01 12:59:14;;;;;;;7.73;3.67;;;7.10;59.10;;;;;;5042247;28;20028;-65
2022/04/01 13:01:41;;;;;;;8.27;4.50;;;7.10;59.10;;;;;;5043672;28;20076;-64
2022/04/01 13:04:09;;;;;;;7.27;3.80;;;7.20;58.90;;;;;;5037291;28;20053;-64
2022/04/01 13:06:35;;;;;;;8.87;4.30;;;7.20;58.70;;;;;;5036389;28;20366;-64
2022/04/01 13:09:09;;;;;;;8.40;4.25;;;7.30;58.60;;;;;;5038485;28;20466;-63
2022/04/01 13:11:45;;;;;;;8.07;3.57;;;7.40;58.40;;;;;;5043831;28;20332;-64
2022/04/01 13:14:25;;;;;;;9.87;4.40;;;7.50;58.00;;;;;;5041413;28;20040;-64
2022/04/01 13:16:53;;;;;;;9.03;4.30;;;7.60;58.10;;;;;;5037921;28;20032;-64
2022/04/01 13:19:23;;;;;;;7.27;3.60;;;7.70;58.10;;;;;;5038121;28;20358;-64
2022/04/01 13:21:51;;;;;;;7.77;3.73;;;7.80;58.00;;;;;;5033146;28;20029;-65
2022/04/01 13:24:21;;;;;;;7.32;3.80;;;7.70;57.80;;;;;;5037636;28;20022;-63
2022/04/01 13:26:47;;;;;;;6.27;3.10;;;7.80;57.80;;;;;;5034562;28;20117;-63
2022/04/01 13:29:13;;;;;;;6.20;3.20;;;7.90;57.70;;;;;;5039839;28;20153;-64
2022/04/01 13:31:40;;;;;;;7.37;3.10;;;7.80;57.50;;;;;;5049076;28;20033;-64
2022/04/01 13:34:07;;;;;;;6.88;3.38;;;7.80;57.30;;;;;;5045435;28;20116;-64